sensor_id;sensor_type;location;lat;lon;timestamp;temperature;humidity
51878;SHT31;37911;51.526;11.536;2023-05-07T00:00:19;10.30;80.14
51878;SHT31;37911;51.526;11.536;2023-05-07T00:03:23;10.23;80.61
51878;SHT31;37911;51.526;11.536;2023-05-07T00:06:29;10.21;80.68
51878;SHT31;37911;51.526;11.536;2023-05-07T00:09:32;10.14;81.08
51878;SHT31;37911;51.526;11.536;2023-05-07T00:12:35;10.21;81.01
51878;SHT31;37911;51.526;11.536;2023-05-07T00:15:39;10.25;81.16
51878;SHT31;37911;51.526;11.536;2023-05-07T00:18:42;10.20;81.64
51878;SHT31;37911;51.526;11.536;2023-05-07T00:21:48;10.20;82.01
51878;SHT31;37911;51.526;11.536;2023-05-07T00:24:53;10.14;82.17
51878;SHT31;37911;51.526;11.536;2023-05-07T00:27:57;10.09;82.70
51878;SHT31;37911;51.526;11.536;2023-05-07T00:31:04;10.04;82.73
51878;SHT31;37911;51.526;11.536;2023-05-07T00:34:07;10.10;82.51
51878;SHT31;37911;51.526;11.536;2023-05-07T00:37:13;10.16;82.02
51878;SHT31;37911;51.526;11.536;2023-05-07T00:40:16;10.16;82.10
51878;SHT31;37911;51.526;11.536;2023-05-07T00:43:19;10.16;81.96
51878;SHT31;37911;51.526;11.536;2023-05-07T00:46:23;10.16;81.95
51878;SHT31;37911;51.526;11.536;2023-05-07T00:49:34;10.16;81.83
51878;SHT31;37911;51.526;11.536;2023-05-07T00:52:41;10.10;81.84
51878;SHT31;37911;51.526;11.536;2023-05-07T00:55:44;10.10;81.85
51878;SHT31;37911;51.526;11.536;2023-05-07T00:58:48;10.02;82.29
51878;SHT31;37911;51.526;11.536;2023-05-07T01:01:52;9.92;82.73
51878;SHT31;37911;51.526;11.536;2023-05-07T01:04:55;9.87;83.25
51878;SHT31;37911;51.526;11.536;2023-05-07T01:08:02;9.87;83.16
51878;SHT31;37911;51.526;11.536;2023-05-07T01:11:07;9.85;83.10
51878;SHT31;37911;51.526;11.536;2023-05-07T01:14:11;9.82;83.00
51878;SHT31;37911;51.526;11.536;2023-05-07T01:17:14;9.79;83.31
51878;SHT31;37911;51.526;11.536;2023-05-07T01:20:19;9.82;83.07
51878;SHT31;37911;51.526;11.536;2023-05-07T01:23:28;9.85;82.97
51878;SHT31;37911;51.526;11.536;2023-05-07T01:26:32;9.87;82.70
51878;SHT31;37911;51.526;11.536;2023-05-07T01:29:36;9.83;82.98
51878;SHT31;37911;51.526;11.536;2023-05-07T01:32:43;9.80;82.96
51878;SHT31;37911;51.526;11.536;2023-05-07T01:35:50;9.70;82.93
51878;SHT31;37911;51.526;11.536;2023-05-07T01:38:57;9.62;83.11
51878;SHT31;37911;51.526;11.536;2023-05-07T01:42:02;9.53;83.45
51878;SHT31;37911;51.526;11.536;2023-05-07T01:45:06;9.56;83.59
51878;SHT31;37911;51.526;11.536;2023-05-07T01:48:11;9.53;83.62
51878;SHT31;37911;51.526;11.536;2023-05-07T01:51:14;9.56;83.11
51878;SHT31;37911;51.526;11.536;2023-05-07T01:54:25;9.58;82.56
51878;SHT31;37911;51.526;11.536;2023-05-07T01:57:30;9.52;82.41
51878;SHT31;37911;51.526;11.536;2023-05-07T02:00:33;9.59;82.21
51878;SHT31;37911;51.526;11.536;2023-05-07T02:03:37;9.49;82.16
51878;SHT31;37911;51.526;11.536;2023-05-07T02:06:47;9.48;82.26
51878;SHT31;37911;51.526;11.536;2023-05-07T02:09:53;9.51;82.00
51878;SHT31;37911;51.526;11.536;2023-05-07T02:12:58;9.46;82.00
51878;SHT31;37911;51.526;11.536;2023-05-07T02:16:02;9.49;81.85
51878;SHT31;37911;51.526;11.536;2023-05-07T02:19:05;9.53;81.53
51878;SHT31;37911;51.526;11.536;2023-05-07T02:22:10;9.55;81.61
51878;SHT31;37911;51.526;11.536;2023-05-07T02:25:15;9.51;81.86
51878;SHT31;37911;51.526;11.536;2023-05-07T02:28:19;9.52;82.01
51878;SHT31;37911;51.526;11.536;2023-05-07T02:31:26;9.58;82.20
51878;SHT31;37911;51.526;11.536;2023-05-07T02:34:29;9.51;82.41
51878;SHT31;37911;51.526;11.536;2023-05-07T02:37:32;9.55;82.52
51878;SHT31;37911;51.526;11.536;2023-05-07T02:40:38;9.46;82.71
51878;SHT31;37911;51.526;11.536;2023-05-07T02:43:42;9.43;83.02
51878;SHT31;37911;51.526;11.536;2023-05-07T02:46:46;9.45;82.88
51878;SHT31;37911;51.526;11.536;2023-05-07T02:49:49;9.43;82.64
51878;SHT31;37911;51.526;11.536;2023-05-07T02:52:53;9.39;82.31
51878;SHT31;37911;51.526;11.536;2023-05-07T02:55:59;9.41;81.89
51878;SHT31;37911;51.526;11.536;2023-05-07T02:59:03;9.42;81.65
51878;SHT31;37911;51.526;11.536;2023-05-07T03:02:11;9.36;81.35
51878;SHT31;37911;51.526;11.536;2023-05-07T03:05:14;9.34;81.37
51878;SHT31;37911;51.526;11.536;2023-05-07T03:08:18;9.43;81.00
51878;SHT31;37911;51.526;11.536;2023-05-07T03:11:24;9.42;81.12
51878;SHT31;37911;51.526;11.536;2023-05-07T03:14:27;9.36;81.06
51878;SHT31;37911;51.526;11.536;2023-05-07T03:17:30;9.38;80.96
51878;SHT31;37911;51.526;11.536;2023-05-07T03:20:34;9.43;80.71
51878;SHT31;37911;51.526;11.536;2023-05-07T03:23:38;9.42;80.57
51878;SHT31;37911;51.526;11.536;2023-05-07T03:26:44;9.38;80.46
51878;SHT31;37911;51.526;11.536;2023-05-07T03:29:48;9.36;80.36
51878;SHT31;37911;51.526;11.536;2023-05-07T03:32:51;9.35;80.31
51878;SHT31;37911;51.526;11.536;2023-05-07T03:35:54;9.36;80.41
51878;SHT31;37911;51.526;11.536;2023-05-07T03:38:59;9.36;80.16
51878;SHT31;37911;51.526;11.536;2023-05-07T03:42:13;9.36;80.16
51878;SHT31;37911;51.526;11.536;2023-05-07T03:45:17;9.35;80.02
51878;SHT31;37911;51.526;11.536;2023-05-07T03:48:27;9.39;80.27
51878;SHT31;37911;51.526;11.536;2023-05-07T03:51:33;9.41;79.95
51878;SHT31;37911;51.526;11.536;2023-05-07T03:54:37;9.41;80.20
51878;SHT31;37911;51.526;11.536;2023-05-07T03:57:43;9.38;80.32
51878;SHT31;37911;51.526;11.536;2023-05-07T04:00:47;9.35;80.55
51878;SHT31;37911;51.526;11.536;2023-05-07T04:04:02;9.42;80.16
51878;SHT31;37911;51.526;11.536;2023-05-07T04:07:07;9.46;80.07
51878;SHT31;37911;51.526;11.536;2023-05-07T04:10:15;9.41;79.90
51878;SHT31;37911;51.526;11.536;2023-05-07T04:13:23;9.43;79.87
51878;SHT31;37911;51.526;11.536;2023-05-07T04:16:27;9.46;79.79
51878;SHT31;37911;51.526;11.536;2023-05-07T04:19:30;9.35;80.13
51878;SHT31;37911;51.526;11.536;2023-05-07T04:22:33;9.45;79.91
51878;SHT31;37911;51.526;11.536;2023-05-07T04:25:38;9.35;80.13
51878;SHT31;37911;51.526;11.536;2023-05-07T04:28:49;9.38;80.25
51878;SHT31;37911;51.526;11.536;2023-05-07T04:31:53;9.36;80.40
51878;SHT31;37911;51.526;11.536;2023-05-07T04:34:57;9.35;80.51
51878;SHT31;37911;51.526;11.536;2023-05-07T04:38:00;9.39;80.42
51878;SHT31;37911;51.526;11.536;2023-05-07T04:41:05;9.43;80.60
51878;SHT31;37911;51.526;11.536;2023-05-07T04:44:15;9.42;80.77
51878;SHT31;37911;51.526;11.536;2023-05-07T04:47:20;9.42;80.81
51878;SHT31;37911;51.526;11.536;2023-05-07T04:50:23;9.32;81.06
51878;SHT31;37911;51.526;11.536;2023-05-07T04:53:30;9.35;81.28
51878;SHT31;37911;51.526;11.536;2023-05-07T04:56:34;9.39;81.15
51878;SHT31;37911;51.526;11.536;2023-05-07T04:59:40;9.43;81.05
51878;SHT31;37911;51.526;11.536;2023-05-07T05:02:44;9.45;81.11
51878;SHT31;37911;51.526;11.536;2023-05-07T05:05:51;9.42;80.88
51878;SHT31;37911;51.526;11.536;2023-05-07T05:08:57;9.38;80.79
51878;SHT31;37911;51.526;11.536;2023-05-07T05:12:03;9.48;80.83
51878;SHT31;37911;51.526;11.536;2023-05-07T05:15:12;9.49;80.70
51878;SHT31;37911;51.526;11.536;2023-05-07T05:18:16;9.48;80.72
51878;SHT31;37911;51.526;11.536;2023-05-07T05:21:21;9.52;80.68
51878;SHT31;37911;51.526;11.536;2023-05-07T05:24:28;9.48;80.58
51878;SHT31;37911;51.526;11.536;2023-05-07T05:27:31;9.59;80.55
51878;SHT31;37911;51.526;11.536;2023-05-07T05:30:37;9.60;80.47
51878;SHT31;37911;51.526;11.536;2023-05-07T05:33:40;9.62;80.28
51878;SHT31;37911;51.526;11.536;2023-05-07T05:36:44;9.69;80.12
51878;SHT31;37911;51.526;11.536;2023-05-07T05:39:49;9.69;80.06
51878;SHT31;37911;51.526;11.536;2023-05-07T05:42:53;9.65;80.04
51878;SHT31;37911;51.526;11.536;2023-05-07T05:46:00;9.68;80.00
51878;SHT31;37911;51.526;11.536;2023-05-07T05:49:04;9.66;80.09
51878;SHT31;37911;51.526;11.536;2023-05-07T05:52:08;9.70;80.12
51878;SHT31;37911;51.526;11.536;2023-05-07T05:55:11;9.72;79.96
51878;SHT31;37911;51.526;11.536;2023-05-07T05:58:15;9.69;79.78
51878;SHT31;37911;51.526;11.536;2023-05-07T06:01:27;9.65;79.80
51878;SHT31;37911;51.526;11.536;2023-05-07T06:04:34;9.65;80.10
51878;SHT31;37911;51.526;11.536;2023-05-07T06:07:38;9.70;79.73
51878;SHT31;37911;51.526;11.536;2023-05-07T06:10:42;9.82;79.50
51878;SHT31;37911;51.526;11.536;2023-05-07T06:13:45;9.96;79.10
51878;SHT31;37911;51.526;11.536;2023-05-07T06:16:51;9.97;78.80
51878;SHT31;37911;51.526;11.536;2023-05-07T06:19:54;9.99;78.47
51878;SHT31;37911;51.526;11.536;2023-05-07T06:22:58;10.06;78.48
51878;SHT31;37911;51.526;11.536;2023-05-07T06:26:02;10.07;77.97
51878;SHT31;37911;51.526;11.536;2023-05-07T06:29:11;10.09;78.14
51878;SHT31;37911;51.526;11.536;2023-05-07T06:32:19;10.16;78.28
51878;SHT31;37911;51.526;11.536;2023-05-07T06:35:23;10.16;78.14
51878;SHT31;37911;51.526;11.536;2023-05-07T06:38:27;10.12;78.39
51878;SHT31;37911;51.526;11.536;2023-05-07T06:41:31;10.00;78.32
51878;SHT31;37911;51.526;11.536;2023-05-07T06:44:41;10.10;78.13
51878;SHT31;37911;51.526;11.536;2023-05-07T06:47:50;10.12;77.61
51878;SHT31;37911;51.526;11.536;2023-05-07T06:50:53;10.14;78.16
51878;SHT31;37911;51.526;11.536;2023-05-07T06:54:01;10.21;77.80
51878;SHT31;37911;51.526;11.536;2023-05-07T06:57:05;10.20;77.81
51878;SHT31;37911;51.526;11.536;2023-05-07T07:00:10;10.30;77.92
51878;SHT31;37911;51.526;11.536;2023-05-07T07:03:25;10.47;77.34
51878;SHT31;37911;51.526;11.536;2023-05-07T07:06:30;10.51;76.56
51878;SHT31;37911;51.526;11.536;2023-05-07T07:09:36;10.40;76.42
51878;SHT31;37911;51.526;11.536;2023-05-07T07:12:40;10.38;76.75
51878;SHT31;37911;51.526;11.536;2023-05-07T07:15:44;10.43;76.22
51878;SHT31;37911;51.526;11.536;2023-05-07T07:18:50;10.43;75.47
51878;SHT31;37911;51.526;11.536;2023-05-07T07:21:54;10.38;75.32
51878;SHT31;37911;51.526;11.536;2023-05-07T07:24:57;10.45;75.51
51878;SHT31;37911;51.526;11.536;2023-05-07T07:28:01;10.45;75.33
51878;SHT31;37911;51.526;11.536;2023-05-07T07:31:04;10.44;75.46
51878;SHT31;37911;51.526;11.536;2023-05-07T07:34:10;10.57;75.44
51878;SHT31;37911;51.526;11.536;2023-05-07T07:37:14;10.44;75.49
51878;SHT31;37911;51.526;11.536;2023-05-07T07:40:17;10.29;76.26
51878;SHT31;37911;51.526;11.536;2023-05-07T07:43:21;10.24;76.54
51878;SHT31;37911;51.526;11.536;2023-05-07T07:46:24;10.23;76.29
51878;SHT31;37911;51.526;11.536;2023-05-07T07:49:31;10.41;76.14
51878;SHT31;37911;51.526;11.536;2023-05-07T07:52:38;10.54;75.40
51878;SHT31;37911;51.526;11.536;2023-05-07T07:55:43;10.60;74.76
51878;SHT31;37911;51.526;11.536;2023-05-07T07:58:50;10.54;74.52
51878;SHT31;37911;51.526;11.536;2023-05-07T08:01:54;10.55;74.81
51878;SHT31;37911;51.526;11.536;2023-05-07T08:05:04;10.54;74.69
51878;SHT31;37911;51.526;11.536;2023-05-07T08:08:08;10.50;74.62
51878;SHT31;37911;51.526;11.536;2023-05-07T08:11:13;10.38;74.82
51878;SHT31;37911;51.526;11.536;2023-05-07T08:14:16;10.47;74.54
51878;SHT31;37911;51.526;11.536;2023-05-07T08:17:22;10.57;74.62
51878;SHT31;37911;51.526;11.536;2023-05-07T08:20:28;10.54;74.09
51878;SHT31;37911;51.526;11.536;2023-05-07T08:23:32;10.57;73.95
51878;SHT31;37911;51.526;11.536;2023-05-07T08:26:36;10.61;73.63
51878;SHT31;37911;51.526;11.536;2023-05-07T08:29:40;10.58;73.85
51878;SHT31;37911;51.526;11.536;2023-05-07T08:32:48;10.58;73.95
51878;SHT31;37911;51.526;11.536;2023-05-07T08:35:53;10.68;73.83
51878;SHT31;37911;51.526;11.536;2023-05-07T08:38:57;10.71;73.72
51878;SHT31;37911;51.526;11.536;2023-05-07T08:42:01;10.67;73.72
51878;SHT31;37911;51.526;11.536;2023-05-07T08:45:09;10.64;73.59
51878;SHT31;37911;51.526;11.536;2023-05-07T08:48:16;10.64;73.77
51878;SHT31;37911;51.526;11.536;2023-05-07T08:51:30;10.63;73.98
51878;SHT31;37911;51.526;11.536;2023-05-07T08:54:36;10.55;73.95
51878;SHT31;37911;51.526;11.536;2023-05-07T08:57:42;10.50;74.22
51878;SHT31;37911;51.526;11.536;2023-05-07T09:00:47;10.50;73.94
51878;SHT31;37911;51.526;11.536;2023-05-07T09:03:51;10.53;74.21
51878;SHT31;37911;51.526;11.536;2023-05-07T09:06:58;10.64;74.13
51878;SHT31;37911;51.526;11.536;2023-05-07T09:10:07;10.64;74.23
51878;SHT31;37911;51.526;11.536;2023-05-07T09:13:13;10.53;74.53
51878;SHT31;37911;51.526;11.536;2023-05-07T09:16:20;10.57;74.05
51878;SHT31;37911;51.526;11.536;2023-05-07T09:19:25;10.65;73.98
51878;SHT31;37911;51.526;11.536;2023-05-07T09:22:36;10.91;73.08
51878;SHT31;37911;51.526;11.536;2023-05-07T09:25:43;11.14;72.10
51878;SHT31;37911;51.526;11.536;2023-05-07T09:28:54;11.39;71.04
51878;SHT31;37911;51.526;11.536;2023-05-07T09:31:58;11.43;70.26
51878;SHT31;37911;51.526;11.536;2023-05-07T09:35:01;11.52;70.14
51878;SHT31;37911;51.526;11.536;2023-05-07T09:38:07;11.49;69.91
51878;SHT31;37911;51.526;11.536;2023-05-07T09:41:12;11.49;70.18
51878;SHT31;37911;51.526;11.536;2023-05-07T09:44:35;11.55;70.07
51878;SHT31;37911;51.526;11.536;2023-05-07T09:47:42;11.66;69.92
51878;SHT31;37911;51.526;11.536;2023-05-07T09:50:50;11.79;69.33
51878;SHT31;37911;51.526;11.536;2023-05-07T09:54:02;11.83;68.88
51878;SHT31;37911;51.526;11.536;2023-05-07T09:57:10;11.97;68.60
51878;SHT31;37911;51.526;11.536;2023-05-07T10:00:17;11.97;68.33
51878;SHT31;37911;51.526;11.536;2023-05-07T10:03:21;11.93;68.28
51878;SHT31;37911;51.526;11.536;2023-05-07T10:06:31;12.00;68.19
51878;SHT31;37911;51.526;11.536;2023-05-07T10:09:37;12.10;67.71
51878;SHT31;37911;51.526;11.536;2023-05-07T10:12:49;12.17;67.53
51878;SHT31;37911;51.526;11.536;2023-05-07T10:16:04;12.25;67.37
51878;SHT31;37911;51.526;11.536;2023-05-07T10:19:14;12.37;66.67
51878;SHT31;37911;51.526;11.536;2023-05-07T10:22:21;12.37;67.07
51878;SHT31;37911;51.526;11.536;2023-05-07T10:25:30;12.35;66.88
51878;SHT31;37911;51.526;11.536;2023-05-07T10:28:43;12.44;66.80
51878;SHT31;37911;51.526;11.536;2023-05-07T10:31:53;12.41;66.69
51878;SHT31;37911;51.526;11.536;2023-05-07T10:34:58;12.49;66.18
51878;SHT31;37911;51.526;11.536;2023-05-07T10:38:04;12.46;66.67
51878;SHT31;37911;51.526;11.536;2023-05-07T10:41:13;12.48;66.57
51878;SHT31;37911;51.526;11.536;2023-05-07T10:44:28;12.44;66.66
51878;SHT31;37911;51.526;11.536;2023-05-07T10:48:05;12.37;66.64
51878;SHT31;37911;51.526;11.536;2023-05-07T10:51:19;12.37;66.54
51878;SHT31;37911;51.526;11.536;2023-05-07T10:54:28;12.31;66.97
51878;SHT31;37911;51.526;11.536;2023-05-07T10:57:42;11.90;67.75
51878;SHT31;37911;51.526;11.536;2023-05-07T11:00:58;11.77;68.38
51878;SHT31;37911;51.526;11.536;2023-05-07T11:04:15;11.91;68.45
51878;SHT31;37911;51.526;11.536;2023-05-07T11:07:33;11.89;67.90
51878;SHT31;37911;51.526;11.536;2023-05-07T11:10:50;11.81;68.95
51878;SHT31;37911;51.526;11.536;2023-05-07T11:14:47;11.86;69.11
51878;SHT31;37911;51.526;11.536;2023-05-07T11:18:04;11.84;68.58
51878;SHT31;37911;51.526;11.536;2023-05-07T11:21:12;11.89;68.80
51878;SHT31;37911;51.526;11.536;2023-05-07T11:24:20;11.87;68.18
51878;SHT31;37911;51.526;11.536;2023-05-07T11:27:31;12.05;67.69
51878;SHT31;37911;51.526;11.536;2023-05-07T11:30:38;12.11;67.48
51878;SHT31;37911;51.526;11.536;2023-05-07T11:33:45;12.05;67.44
51878;SHT31;37911;51.526;11.536;2023-05-07T11:36:51;12.08;67.38
51878;SHT31;37911;51.526;11.536;2023-05-07T11:40:05;12.23;68.08
51878;SHT31;37911;51.526;11.536;2023-05-07T11:43:12;12.05;67.97
51878;SHT31;37911;51.526;11.536;2023-05-07T11:46:18;12.00;68.85
51878;SHT31;37911;51.526;11.536;2023-05-07T11:49:25;12.20;68.54
51878;SHT31;37911;51.526;11.536;2023-05-07T11:52:28;12.18;67.96
51878;SHT31;37911;51.526;11.536;2023-05-07T11:55:32;11.93;68.74
51878;SHT31;37911;51.526;11.536;2023-05-07T11:58:36;11.87;68.79
51878;SHT31;37911;51.526;11.536;2023-05-07T12:01:45;12.01;68.71
51878;SHT31;37911;51.526;11.536;2023-05-07T12:04:48;12.11;67.94
51878;SHT31;37911;51.526;11.536;2023-05-07T12:07:56;12.08;68.97
51878;SHT31;37911;51.526;11.536;2023-05-07T12:10:59;12.10;68.95
51878;SHT31;37911;51.526;11.536;2023-05-07T12:14:02;11.97;69.09
51878;SHT31;37911;51.526;11.536;2023-05-07T12:17:09;12.05;68.36
51878;SHT31;37911;51.526;11.536;2023-05-07T12:20:12;12.14;67.67
51878;SHT31;37911;51.526;11.536;2023-05-07T12:23:16;12.14;67.94
51878;SHT31;37911;51.526;11.536;2023-05-07T12:26:20;12.16;67.85
51878;SHT31;37911;51.526;11.536;2023-05-07T12:29:25;12.03;67.74
51878;SHT31;37911;51.526;11.536;2023-05-07T12:32:31;11.97;67.99
51878;SHT31;37911;51.526;11.536;2023-05-07T12:35:38;12.07;68.18
51878;SHT31;37911;51.526;11.536;2023-05-07T12:38:42;12.01;67.94
51878;SHT31;37911;51.526;11.536;2023-05-07T12:41:55;12.18;68.27
51878;SHT31;37911;51.526;11.536;2023-05-07T12:44:59;12.37;67.80
51878;SHT31;37911;51.526;11.536;2023-05-07T12:48:05;12.35;67.55
51878;SHT31;37911;51.526;11.536;2023-05-07T12:51:08;12.33;67.63
51878;SHT31;37911;51.526;11.536;2023-05-07T12:54:13;12.34;67.05
51878;SHT31;37911;51.526;11.536;2023-05-07T12:57:19;12.21;67.64
51878;SHT31;37911;51.526;11.536;2023-05-07T13:00:36;12.24;68.22
51878;SHT31;37911;51.526;11.536;2023-05-07T13:03:48;12.21;68.08
51878;SHT31;37911;51.526;11.536;2023-05-07T13:06:51;12.16;67.98
51878;SHT31;37911;51.526;11.536;2023-05-07T13:09:55;12.13;67.97
51878;SHT31;37911;51.526;11.536;2023-05-07T13:12:58;12.34;67.53
51878;SHT31;37911;51.526;11.536;2023-05-07T13:16:02;12.37;67.35
51878;SHT31;37911;51.526;11.536;2023-05-07T13:19:08;12.46;66.94
51878;SHT31;37911;51.526;11.536;2023-05-07T13:22:12;12.58;66.88
51878;SHT31;37911;51.526;11.536;2023-05-07T13:25:15;12.54;66.11
51878;SHT31;37911;51.526;11.536;2023-05-07T13:28:18;12.55;66.47
51878;SHT31;37911;51.526;11.536;2023-05-07T13:31:22;12.46;66.20
51878;SHT31;37911;51.526;11.536;2023-05-07T13:34:28;12.51;66.59
51878;SHT31;37911;51.526;11.536;2023-05-07T13:37:31;12.48;66.32
51878;SHT31;37911;51.526;11.536;2023-05-07T13:40:34;12.54;66.41
51878;SHT31;37911;51.526;11.536;2023-05-07T13:43:38;12.38;67.02
51878;SHT31;37911;51.526;11.536;2023-05-07T13:46:41;12.27;67.07
51878;SHT31;37911;51.526;11.536;2023-05-07T13:49:47;12.27;67.01
51878;SHT31;37911;51.526;11.536;2023-05-07T13:52:51;12.30;67.43
51878;SHT31;37911;51.526;11.536;2023-05-07T13:55:54;12.20;67.77
51878;SHT31;37911;51.526;11.536;2023-05-07T13:58:58;12.23;68.01
51878;SHT31;37911;51.526;11.536;2023-05-07T14:02:02;12.08;67.66
51878;SHT31;37911;51.526;11.536;2023-05-07T14:05:08;12.25;67.35
51878;SHT31;37911;51.526;11.536;2023-05-07T14:08:13;12.33;66.68
51878;SHT31;37911;51.526;11.536;2023-05-07T14:11:18;12.38;67.03
51878;SHT31;37911;51.526;11.536;2023-05-07T14:14:22;12.55;65.79
51878;SHT31;37911;51.526;11.536;2023-05-07T14:17:25;12.92;65.21
51878;SHT31;37911;51.526;11.536;2023-05-07T14:20:31;12.88;64.07
51878;SHT31;37911;51.526;11.536;2023-05-07T14:23:36;13.03;64.09
51878;SHT31;37911;51.526;11.536;2023-05-07T14:26:40;13.00;63.90
51878;SHT31;37911;51.526;11.536;2023-05-07T14:29:43;13.12;64.16
51878;SHT31;37911;51.526;11.536;2023-05-07T14:32:51;13.15;64.02
51878;SHT31;37911;51.526;11.536;2023-05-07T14:35:57;13.03;64.36
51878;SHT31;37911;51.526;11.536;2023-05-07T14:39:00;13.15;63.96
51878;SHT31;37911;51.526;11.536;2023-05-07T14:42:04;13.26;63.18
51878;SHT31;37911;51.526;11.536;2023-05-07T14:45:09;13.30;63.29
51878;SHT31;37911;51.526;11.536;2023-05-07T14:48:13;13.16;64.40
51878;SHT31;37911;51.526;11.536;2023-05-07T14:51:20;13.13;64.73
51878;SHT31;37911;51.526;11.536;2023-05-07T14:54:24;13.02;65.15
51878;SHT31;37911;51.526;11.536;2023-05-07T14:57:28;12.98;65.43
51878;SHT31;37911;51.526;11.536;2023-05-07T15:00:35;12.89;65.81
51878;SHT31;37911;51.526;11.536;2023-05-07T15:03:39;12.98;65.98
51878;SHT31;37911;51.526;11.536;2023-05-07T15:06:44;13.08;65.40
51878;SHT31;37911;51.526;11.536;2023-05-07T15:09:48;13.19;65.41
51878;SHT31;37911;51.526;11.536;2023-05-07T15:12:52;13.18;65.36
51878;SHT31;37911;51.526;11.536;2023-05-07T15:15:55;12.99;66.39
51878;SHT31;37911;51.526;11.536;2023-05-07T15:18:58;12.91;67.14
51878;SHT31;37911;51.526;11.536;2023-05-07T15:22:04;12.91;67.55
51878;SHT31;37911;51.526;11.536;2023-05-07T15:25:09;12.85;67.73
51878;SHT31;37911;51.526;11.536;2023-05-07T15:28:12;12.85;67.94
51878;SHT31;37911;51.526;11.536;2023-05-07T15:31:15;12.85;67.68
51878;SHT31;37911;51.526;11.536;2023-05-07T15:34:18;12.75;67.40
51878;SHT31;37911;51.526;11.536;2023-05-07T15:37:24;12.76;67.76
51878;SHT31;37911;51.526;11.536;2023-05-07T15:40:28;12.76;67.46
51878;SHT31;37911;51.526;11.536;2023-05-07T15:43:31;12.85;67.65
51878;SHT31;37911;51.526;11.536;2023-05-07T15:46:34;12.89;67.46
51878;SHT31;37911;51.526;11.536;2023-05-07T15:49:38;12.96;67.07
51878;SHT31;37911;51.526;11.536;2023-05-07T15:52:44;12.89;67.16
51878;SHT31;37911;51.526;11.536;2023-05-07T15:55:47;12.88;67.32
51878;SHT31;37911;51.526;11.536;2023-05-07T15:58:51;12.95;67.04
51878;SHT31;37911;51.526;11.536;2023-05-07T16:01:55;12.93;67.37
51878;SHT31;37911;51.526;11.536;2023-05-07T16:04:58;12.91;67.16
51878;SHT31;37911;51.526;11.536;2023-05-07T16:08:05;12.85;67.00
51878;SHT31;37911;51.526;11.536;2023-05-07T16:11:08;12.85;67.23
51878;SHT31;37911;51.526;11.536;2023-05-07T16:14:11;12.93;67.06
51878;SHT31;37911;51.526;11.536;2023-05-07T16:17:14;12.92;67.12
51878;SHT31;37911;51.526;11.536;2023-05-07T16:20:18;12.88;67.08
51878;SHT31;37911;51.526;11.536;2023-05-07T16:23:25;12.81;67.25
51878;SHT31;37911;51.526;11.536;2023-05-07T16:26:28;12.79;67.18
51878;SHT31;37911;51.526;11.536;2023-05-07T16:29:31;12.79;67.11
51878;SHT31;37911;51.526;11.536;2023-05-07T16:32:35;12.85;67.36
51878;SHT31;37911;51.526;11.536;2023-05-07T16:35:38;12.81;68.11
51878;SHT31;37911;51.526;11.536;2023-05-07T16:38:45;12.74;68.16
51878;SHT31;37911;51.526;11.536;2023-05-07T16:41:49;12.76;68.70
51878;SHT31;37911;51.526;11.536;2023-05-07T16:44:52;12.76;68.95
51878;SHT31;37911;51.526;11.536;2023-05-07T16:47:55;12.75;69.16
51878;SHT31;37911;51.526;11.536;2023-05-07T16:50:59;12.79;68.56
51878;SHT31;37911;51.526;11.536;2023-05-07T16:54:05;12.68;68.13
51878;SHT31;37911;51.526;11.536;2023-05-07T16:57:08;12.65;68.17
51878;SHT31;37911;51.526;11.536;2023-05-07T17:00:13;12.54;68.66
51878;SHT31;37911;51.526;11.536;2023-05-07T17:03:17;12.69;68.86
51878;SHT31;37911;51.526;11.536;2023-05-07T17:06:21;12.78;68.71
51878;SHT31;37911;51.526;11.536;2023-05-07T17:09:27;12.82;68.22
51878;SHT31;37911;51.526;11.536;2023-05-07T17:12:30;12.81;67.33
51878;SHT31;37911;51.526;11.536;2023-05-07T17:15:35;12.76;67.26
51878;SHT31;37911;51.526;11.536;2023-05-07T17:18:40;12.64;67.27
51878;SHT31;37911;51.526;11.536;2023-05-07T17:21:43;12.65;66.94
51878;SHT31;37911;51.526;11.536;2023-05-07T17:24:49;12.51;66.82
51878;SHT31;37911;51.526;11.536;2023-05-07T17:27:52;12.34;67.72
51878;SHT31;37911;51.526;11.536;2023-05-07T17:30:56;12.31;68.01
51878;SHT31;37911;51.526;11.536;2023-05-07T17:33:59;12.23;68.85
51878;SHT31;37911;51.526;11.536;2023-05-07T17:37:02;12.23;68.77
51878;SHT31;37911;51.526;11.536;2023-05-07T17:40:09;12.16;69.58
51878;SHT31;37911;51.526;11.536;2023-05-07T17:43:12;12.07;70.08
51878;SHT31;37911;51.526;11.536;2023-05-07T17:46:15;12.00;70.15
51878;SHT31;37911;51.526;11.536;2023-05-07T17:49:19;11.98;70.57
51878;SHT31;37911;51.526;11.536;2023-05-07T17:52:22;11.97;70.57
51878;SHT31;37911;51.526;11.536;2023-05-07T17:55:29;11.90;70.75
51878;SHT31;37911;51.526;11.536;2023-05-07T17:58:32;12.03;70.79
51878;SHT31;37911;51.526;11.536;2023-05-07T18:01:36;11.95;70.61
51878;SHT31;37911;51.526;11.536;2023-05-07T18:04:40;11.89;70.59
51878;SHT31;37911;51.526;11.536;2023-05-07T18:07:43;11.71;70.90
51878;SHT31;37911;51.526;11.536;2023-05-07T18:10:49;11.67;70.85
51878;SHT31;37911;51.526;11.536;2023-05-07T18:13:53;11.62;70.78
51878;SHT31;37911;51.526;11.536;2023-05-07T18:16:56;11.62;71.10
51878;SHT31;37911;51.526;11.536;2023-05-07T18:19:59;11.56;71.11
51878;SHT31;37911;51.526;11.536;2023-05-07T18:23:03;11.50;71.10
51878;SHT31;37911;51.526;11.536;2023-05-07T18:26:09;11.49;71.34
51878;SHT31;37911;51.526;11.536;2023-05-07T18:29:12;11.43;71.84
51878;SHT31;37911;51.526;11.536;2023-05-07T18:32:15;11.39;71.83
51878;SHT31;37911;51.526;11.536;2023-05-07T18:35:18;11.42;72.02
51878;SHT31;37911;51.526;11.536;2023-05-07T18:38:22;11.35;71.97
51878;SHT31;37911;51.526;11.536;2023-05-07T18:41:27;11.33;72.10
51878;SHT31;37911;51.526;11.536;2023-05-07T18:44:31;11.28;72.06
51878;SHT31;37911;51.526;11.536;2023-05-07T18:47:37;11.26;72.24
51878;SHT31;37911;51.526;11.536;2023-05-07T18:50:41;11.26;72.14
51878;SHT31;37911;51.526;11.536;2023-05-07T18:53:44;11.23;72.39
51878;SHT31;37911;51.526;11.536;2023-05-07T18:56:50;11.15;72.52
51878;SHT31;37911;51.526;11.536;2023-05-07T18:59:53;11.15;72.66
51878;SHT31;37911;51.526;11.536;2023-05-07T19:02:57;11.18;72.68
51878;SHT31;37911;51.526;11.536;2023-05-07T19:06:00;11.15;72.73
51878;SHT31;37911;51.526;11.536;2023-05-07T19:09:04;11.12;72.93
51878;SHT31;37911;51.526;11.536;2023-05-07T19:12:10;11.14;72.93
51878;SHT31;37911;51.526;11.536;2023-05-07T19:15:14;11.09;72.98
51878;SHT31;37911;51.526;11.536;2023-05-07T19:18:17;11.11;73.33